createdAt,value
2019-03-26T00:00:24.695Z,10.28
2019-03-26T00:01:24.638Z,10.30
2019-03-26T00:02:24.578Z,10.34
2019-03-26T00:03:24.523Z,10.30
2019-03-26T00:04:24.460Z,10.34
2019-03-26T00:05:24.409Z,10.34
2019-03-26T00:06:24.343Z,10.30
2019-03-26T00:07:24.286Z,10.28
2019-03-26T00:08:24.226Z,10.28
2019-03-26T00:09:24.169Z,10.34
2019-03-26T00:10:24.109Z,10.26
2019-03-26T00:11:24.051Z,10.34
2019-03-26T00:12:23.991Z,10.33
2019-03-26T00:13:23.933Z,10.30
2019-03-26T00:14:23.875Z,10.24
2019-03-26T00:15:23.816Z,10.30
2019-03-26T00:16:23.756Z,10.30
2019-03-26T00:17:23.701Z,10.32
2019-03-26T00:18:23.640Z,10.32
2019-03-26T00:19:23.582Z,10.34
2019-03-26T00:20:23.530Z,10.28
2019-03-26T00:21:23.464Z,10.33
2019-03-26T00:22:23.406Z,10.24
2019-03-26T00:23:23.347Z,10.26
2019-03-26T00:24:23.288Z,10.30
2019-03-26T00:25:23.229Z,10.30
2019-03-26T00:26:23.169Z,10.32
2019-03-26T00:27:23.111Z,10.26
2019-03-26T00:28:23.052Z,10.30
2019-03-26T00:29:22.994Z,10.21
2019-03-26T00:30:22.935Z,10.19
2019-03-26T00:31:22.878Z,10.30
2019-03-26T00:32:23.795Z,10.21
2019-03-26T00:33:35.370Z,10.19
2019-03-26T00:34:22.700Z,10.33
2019-03-26T00:35:22.643Z,10.21
2019-03-26T00:36:22.582Z,10.19
2019-03-26T00:37:22.523Z,10.25
2019-03-26T00:38:22.464Z,10.18
2019-03-26T00:39:22.408Z,10.24
2019-03-26T00:40:22.347Z,10.25
2019-03-26T00:41:22.290Z,10.25
2019-03-26T00:42:22.296Z,10.30
2019-03-26T00:43:22.174Z,10.18
2019-03-26T00:44:22.112Z,10.22
2019-03-26T00:45:22.053Z,10.19
2019-03-26T00:46:21.995Z,10.22
2019-03-26T00:47:21.936Z,10.24
2019-03-26T00:48:21.881Z,10.24
2019-03-26T00:49:21.821Z,10.24
2019-03-26T00:50:21.760Z,10.19
2019-03-26T00:51:21.701Z,10.19
2019-03-26T00:52:21.642Z,10.25
2019-03-26T00:53:21.582Z,10.24
2019-03-26T00:54:21.533Z,10.19
2019-03-26T00:55:22.898Z,10.17
2019-03-26T00:56:21.409Z,10.18
2019-03-26T00:57:21.348Z,10.24
2019-03-26T00:58:21.289Z,10.19
2019-03-26T00:59:21.230Z,10.19
2019-03-26T01:00:21.173Z,10.24
2019-03-26T01:01:21.113Z,10.18
2019-03-26T01:02:21.055Z,10.19
2019-03-26T01:03:20.996Z,10.19
2019-03-26T01:04:32.294Z,10.22
2019-03-26T01:05:20.878Z,10.15
2019-03-26T01:06:20.821Z,10.22
2019-03-26T01:07:20.762Z,10.19
2019-03-26T01:08:20.702Z,10.18
2019-03-26T01:09:20.643Z,10.18
2019-03-26T01:10:20.587Z,10.19
2019-03-26T01:11:20.526Z,10.24
2019-03-26T01:12:20.466Z,10.09
2019-03-26T01:13:20.408Z,10.06
2019-03-26T01:14:20.352Z,10.09
2019-03-26T01:15:20.291Z,10.19
2019-03-26T01:16:20.231Z,10.12
2019-03-26T01:17:20.175Z,10.18
2019-03-26T01:18:20.115Z,10.12
2019-03-26T01:19:20.057Z,10.12
2019-03-26T01:20:19.996Z,10.06
2019-03-26T01:21:19.938Z,10.12
2019-03-26T01:22:19.878Z,10.06
2019-03-26T01:23:19.820Z,10.09
2019-03-26T01:24:19.760Z,10.09
2019-03-26T01:25:19.702Z,10.14
2019-03-26T01:26:19.643Z,10.10
2019-03-26T01:27:19.584Z,10.15
2019-03-26T01:28:19.524Z,10.10
2019-03-26T01:29:19.466Z,10.09
2019-03-26T01:30:19.408Z,10.18
2019-03-26T01:31:19.349Z,10.09
2019-03-26T01:32:19.292Z,10.14
2019-03-26T01:33:19.233Z,10.14
2019-03-26T01:34:19.173Z,10.14
2019-03-26T01:35:19.114Z,10.07
2019-03-26T01:36:19.058Z,10.17
2019-03-26T01:37:18.996Z,10.14
2019-03-26T01:38:18.937Z,10.12
2019-03-26T01:39:18.878Z,10.10
2019-03-26T01:40:18.820Z,10.12
2019-03-26T01:41:18.760Z,10.14
2019-03-26T01:42:18.701Z,10.18
2019-03-26T01:43:18.646Z,10.07
2019-03-26T01:44:18.584Z,10.14
2019-03-26T01:45:18.525Z,10.14
2019-03-26T01:46:18.466Z,10.12
2019-03-26T01:47:18.409Z,10.14
2019-03-26T01:48:18.347Z,10.14
2019-03-26T01:49:18.290Z,10.07
2019-03-26T01:50:18.236Z,10.10
2019-03-26T01:51:18.172Z,10.14
2019-03-26T01:52:18.120Z,10.15
2019-03-26T01:53:20.267Z,10.15
2019-03-26T01:54:17.996Z,10.14
2019-03-26T01:55:17.937Z,10.07
2019-03-26T01:56:17.877Z,10.06
2019-03-26T01:57:17.818Z,10.10
2019-03-26T01:58:17.760Z,10.14
2019-03-26T01:59:17.704Z,10.09
2019-03-26T02:00:17.641Z,10.15
2019-03-26T02:01:17.583Z,10.07
2019-03-26T02:02:17.524Z,10.18
2019-03-26T02:03:17.466Z,10.12
2019-03-26T02:04:17.407Z,10.06
2019-03-26T02:05:17.353Z,10.18
2019-03-26T02:06:17.289Z,10.07
2019-03-26T02:07:17.251Z,10.01
2019-03-26T02:08:17.171Z,10.09
2019-03-26T02:09:17.113Z,10.04
2019-03-26T02:10:17.053Z,10.10
2019-03-26T02:11:16.999Z,9.97
2019-03-26T02:12:16.936Z,10.00
2019-03-26T02:13:16.876Z,10.07
2019-03-26T02:14:16.819Z,10.03
2019-03-26T02:15:16.759Z,10.06
2019-03-26T02:16:16.704Z,10.04
2019-03-26T02:17:16.644Z,10.04
2019-03-26T02:18:16.582Z,10.03
2019-03-26T02:19:16.524Z,9.99
2019-03-26T02:20:16.465Z,9.97
2019-03-26T02:21:16.406Z,10.01
2019-03-26T02:22:16.347Z,10.09
2019-03-26T02:23:16.287Z,10.07
2019-03-26T02:24:16.228Z,10.09
2019-03-26T02:25:16.169Z,10.03
2019-03-26T02:26:16.111Z,10.15
2019-03-26T02:27:16.124Z,10.03
2019-03-26T02:28:15.992Z,10.04
2019-03-26T02:29:15.935Z,9.99
2019-03-26T02:30:15.880Z,10.04
2019-03-26T02:31:15.822Z,10.07
2019-03-26T02:32:15.759Z,10.06
2019-03-26T02:33:15.700Z,10.07
2019-03-26T02:34:15.639Z,10.03
2019-03-26T02:35:18.440Z,10.07
2019-03-26T02:36:15.521Z,10.07
2019-03-26T02:37:15.465Z,10.03
2019-03-26T02:38:15.404Z,10.10
2019-03-26T02:39:15.345Z,10.07
2019-03-26T02:40:15.285Z,10.14
2019-03-26T02:41:15.227Z,10.03
2019-03-26T02:42:15.168Z,10.06
2019-03-26T02:43:15.113Z,10.04
2019-03-26T02:44:15.051Z,9.99
2019-03-26T02:45:14.991Z,10.03
2019-03-26T02:46:14.940Z,10.06
2019-03-26T02:47:14.873Z,10.07
2019-03-26T02:48:14.914Z,9.96
2019-03-26T02:49:14.761Z,10.00
2019-03-26T02:50:14.699Z,10.01
2019-03-26T02:51:14.643Z,9.99
2019-03-26T02:52:14.577Z,10.07
2019-03-26T02:53:14.521Z,9.97
2019-03-26T02:54:14.461Z,9.94
2019-03-26T02:55:14.409Z,9.96
2019-03-26T02:56:14.343Z,9.94
2019-03-26T02:57:14.286Z,9.93
2019-03-26T02:58:14.236Z,10.03
2019-03-26T02:59:14.168Z,9.91
2019-03-26T03:00:14.108Z,10.03
2019-03-26T03:01:14.048Z,9.97
2019-03-26T03:02:13.990Z,9.97
2019-03-26T03:03:13.931Z,9.97
2019-03-26T03:04:13.872Z,9.88
2019-03-26T03:05:13.813Z,9.96
2019-03-26T03:06:13.757Z,9.94
2019-03-26T03:07:13.694Z,9.97
2019-03-26T03:08:13.636Z,9.93
2019-03-26T03:09:13.577Z,9.89
2019-03-26T03:10:13.523Z,9.93
2019-03-26T03:11:13.460Z,9.93
2019-03-26T03:12:13.399Z,9.89
2019-03-26T03:13:13.361Z,9.93
2019-03-26T03:14:13.283Z,9.94
2019-03-26T03:15:13.224Z,9.96
2019-03-26T03:16:13.165Z,9.97
2019-03-26T03:17:13.105Z,9.97
2019-03-26T03:18:13.150Z,9.89
2019-03-26T03:19:15.845Z,9.91
2019-03-26T03:20:12.930Z,9.89
2019-03-26T03:21:12.871Z,9.89
2019-03-26T03:22:12.809Z,9.93
2019-03-26T03:23:12.752Z,9.94
2019-03-26T03:24:12.691Z,9.93
2019-03-26T03:25:12.633Z,9.93
2019-03-26T03:26:12.578Z,10.00
2019-03-26T03:27:12.515Z,9.91
2019-03-26T03:28:12.454Z,9.96
2019-03-26T03:29:12.397Z,9.94
2019-03-26T03:30:12.344Z,9.96
2019-03-26T03:31:12.279Z,9.91
2019-03-26T03:32:12.220Z,9.88
2019-03-26T03:33:12.163Z,9.91
2019-03-26T03:34:12.102Z,9.88
2019-03-26T03:35:12.064Z,9.89
2019-03-26T03:36:12.063Z,9.86
2019-03-26T03:37:11.927Z,9.89
2019-03-26T03:38:11.867Z,9.82
2019-03-26T03:39:11.806Z,9.91
2019-03-26T03:40:11.748Z,9.82
2019-03-26T03:41:11.688Z,9.85
2019-03-26T03:42:11.631Z,9.88
2019-03-26T03:43:11.574Z,9.91
2019-03-26T03:44:11.511Z,9.91
2019-03-26T03:45:11.451Z,9.89
2019-03-26T03:46:11.393Z,9.81
2019-03-26T03:47:11.334Z,9.86
2019-03-26T03:48:11.273Z,9.81
2019-03-26T03:49:11.237Z,9.82
2019-03-26T03:50:11.155Z,9.86
2019-03-26T03:51:11.097Z,9.85
2019-03-26T03:52:11.038Z,9.86
2019-03-26T03:53:10.979Z,9.82
2019-03-26T03:54:10.922Z,9.85
2019-03-26T03:55:10.867Z,9.83
2019-03-26T03:56:10.803Z,9.82
2019-03-26T03:57:10.743Z,9.86
2019-03-26T03:58:10.684Z,9.83
2019-03-26T03:59:10.628Z,9.81
2019-03-26T04:00:10.576Z,9.82
2019-03-26T04:01:10.508Z,9.78
2019-03-26T04:02:10.511Z,9.79
2019-03-26T04:03:10.389Z,9.78
2019-03-26T04:04:10.332Z,9.85
2019-03-26T04:05:10.270Z,9.76
2019-03-26T04:06:10.409Z,9.78
2019-03-26T04:07:10.152Z,9.76
2019-03-26T04:08:10.101Z,9.71
2019-03-26T04:09:10.034Z,9.75
2019-03-26T04:10:09.981Z,9.70
2019-03-26T04:11:09.923Z,9.78
2019-03-26T04:12:09.858Z,9.70
2019-03-26T04:13:09.797Z,9.73
2019-03-26T04:14:09.871Z,9.79
2019-03-26T04:15:09.679Z,9.78
2019-03-26T04:16:09.626Z,9.78
2019-03-26T04:17:09.561Z,9.79
2019-03-26T04:18:09.507Z,9.67
2019-03-26T04:19:09.443Z,9.71
2019-03-26T04:20:09.384Z,9.68
2019-03-26T04:21:09.324Z,9.68
2019-03-26T04:22:09.265Z,9.76
2019-03-26T04:23:09.207Z,9.68
2019-03-26T04:24:09.149Z,9.70
2019-03-26T04:25:09.090Z,9.73
2019-03-26T04:26:09.029Z,9.71
2019-03-26T04:27:08.971Z,9.76
2019-03-26T04:28:08.920Z,9.67
2019-03-26T04:29:08.851Z,9.73
2019-03-26T04:30:08.793Z,9.73
2019-03-26T04:31:08.733Z,9.73
2019-03-26T04:32:08.672Z,9.66
2019-03-26T04:33:08.614Z,9.70
2019-03-26T04:34:08.559Z,9.71
2019-03-26T04:35:08.497Z,9.70
2019-03-26T04:36:24.118Z,9.68
2019-03-26T04:37:08.378Z,9.67
2019-03-26T04:38:08.317Z,9.70
2019-03-26T04:39:08.259Z,9.71
2019-03-26T04:40:08.200Z,9.66
2019-03-26T04:41:08.141Z,9.67
2019-03-26T04:42:08.083Z,9.68
2019-03-26T04:43:08.022Z,9.68
2019-03-26T04:44:07.962Z,9.67
2019-03-26T04:45:07.905Z,9.66
2019-03-26T04:46:07.845Z,9.66
2019-03-26T04:47:07.786Z,9.67
2019-03-26T04:48:07.728Z,9.68
2019-03-26T04:49:07.667Z,9.70
2019-03-26T04:50:07.613Z,9.64
2019-03-26T04:51:07.550Z,9.66
2019-03-26T04:52:07.490Z,9.66
2019-03-26T04:53:07.430Z,9.66
2019-03-26T04:54:07.373Z,9.66
2019-03-26T04:55:07.313Z,9.64
2019-03-26T04:56:07.252Z,9.58
2019-03-26T04:57:07.192Z,9.68
2019-03-26T04:58:07.135Z,9.68
2019-03-26T04:59:07.077Z,9.66
2019-03-26T05:00:07.017Z,9.67
2019-03-26T05:01:06.959Z,9.64
2019-03-26T05:02:06.901Z,9.60
2019-03-26T05:03:06.840Z,9.61
2019-03-26T05:04:06.780Z,9.64
2019-03-26T05:05:06.719Z,9.60
2019-03-26T05:06:06.662Z,9.57
2019-03-26T05:07:06.603Z,9.60
2019-03-26T05:08:06.544Z,9.50
2019-03-26T05:09:06.483Z,9.60
2019-03-26T05:10:06.424Z,9.53
2019-03-26T05:11:06.365Z,9.61
2019-03-26T05:12:06.304Z,9.57
2019-03-26T05:13:06.245Z,9.56
2019-03-26T05:14:06.186Z,9.57
2019-03-26T05:15:06.132Z,9.57
2019-03-26T05:16:06.075Z,9.63
2019-03-26T05:17:06.010Z,9.56
2019-03-26T05:18:05.951Z,9.56
2019-03-26T05:19:05.890Z,9.57
2019-03-26T05:20:05.836Z,9.53
2019-03-26T05:21:05.776Z,9.53
2019-03-26T05:22:05.712Z,9.56
2019-03-26T05:23:05.655Z,9.50
2019-03-26T05:24:05.597Z,9.48
2019-03-26T05:25:05.544Z,9.56
2019-03-26T05:26:05.487Z,9.56
2019-03-26T05:27:05.422Z,9.57
2019-03-26T05:28:05.360Z,9.50
2019-03-26T05:29:05.299Z,9.49
2019-03-26T05:30:05.240Z,9.45
2019-03-26T05:31:05.179Z,9.50
2019-03-26T05:32:05.119Z,9.46
2019-03-26T05:33:05.062Z,9.50
2019-03-26T05:34:05.001Z,9.49
2019-03-26T05:35:04.952Z,9.48
2019-03-26T05:36:04.884Z,9.58
2019-03-26T05:37:04.822Z,9.53
2019-03-26T05:38:04.765Z,9.43
2019-03-26T05:39:04.705Z,9.40
2019-03-26T05:40:04.646Z,9.49
2019-03-26T05:41:04.586Z,9.48
2019-03-26T05:42:04.529Z,9.38
2019-03-26T05:43:04.466Z,9.43
2019-03-26T05:44:04.408Z,9.40
2019-03-26T05:45:04.347Z,9.42
2019-03-26T05:46:04.288Z,9.45
2019-03-26T05:47:04.230Z,9.35
2019-03-26T05:48:04.169Z,9.48
2019-03-26T05:49:04.110Z,9.43
2019-03-26T05:50:04.051Z,9.38
2019-03-26T05:51:03.994Z,9.39
2019-03-26T05:52:03.931Z,9.42
2019-03-26T05:53:03.875Z,9.39
2019-03-26T05:54:03.815Z,9.50
2019-03-26T05:55:03.755Z,9.42
2019-03-26T05:56:03.697Z,9.42
2019-03-26T05:57:03.639Z,9.45
2019-03-26T05:58:03.797Z,9.42
2019-03-26T05:59:03.519Z,9.35
2019-03-26T06:00:03.463Z,9.46
2019-03-26T06:01:03.399Z,9.39
2019-03-26T06:02:13.466Z,9.43
2019-03-26T06:03:03.279Z,9.46
2019-03-26T06:04:03.219Z,9.49
2019-03-26T06:05:03.161Z,9.45
2019-03-26T06:06:03.101Z,9.53
2019-03-26T06:07:05.121Z,9.46
2019-03-26T06:08:02.981Z,9.49
2019-03-26T06:09:02.922Z,9.43
2019-03-26T06:10:02.863Z,9.52
2019-03-26T06:11:02.804Z,9.49
2019-03-26T06:12:02.744Z,9.43
2019-03-26T06:13:02.685Z,9.43
2019-03-26T06:14:02.629Z,9.46
2019-03-26T06:15:02.574Z,9.48
2019-03-26T06:16:02.511Z,9.40
2019-03-26T06:17:02.447Z,9.42
2019-03-26T06:18:02.391Z,9.53
2019-03-26T06:19:02.332Z,9.45
2019-03-26T06:20:02.270Z,9.42
2019-03-26T06:21:02.210Z,9.45
2019-03-26T06:22:02.151Z,9.42
2019-03-26T06:23:02.094Z,9.42
2019-03-26T06:24:02.032Z,9.43
2019-03-26T06:25:01.973Z,9.35
2019-03-26T06:26:01.995Z,9.43
2019-03-26T06:27:01.853Z,9.46
2019-03-26T06:28:01.793Z,9.45
2019-03-26T06:29:01.735Z,9.40
2019-03-26T06:30:01.679Z,9.45
2019-03-26T06:31:01.617Z,9.34
2019-03-26T06:32:01.556Z,9.40
2019-03-26T06:33:01.496Z,9.40
2019-03-26T06:34:01.441Z,9.43
2019-03-26T06:35:01.379Z,9.45
2019-03-26T06:36:01.319Z,9.31
2019-03-26T06:37:01.258Z,9.42
2019-03-26T06:38:01.204Z,9.40
2019-03-26T06:39:01.140Z,9.43
2019-03-26T06:40:01.079Z,9.45
2019-03-26T06:41:01.021Z,9.43
2019-03-26T06:42:00.961Z,9.42
2019-03-26T06:43:00.903Z,9.42
2019-03-26T06:44:00.842Z,9.40
2019-03-26T06:45:00.782Z,9.43
2019-03-26T06:46:00.724Z,9.42
2019-03-26T06:47:00.668Z,9.32
2019-03-26T06:48:00.604Z,9.45
2019-03-26T06:49:00.545Z,9.43
2019-03-26T06:50:00.489Z,9.32
2019-03-26T06:51:00.429Z,9.38
2019-03-26T06:52:00.367Z,9.48
2019-03-26T06:53:00.307Z,9.42
2019-03-26T06:54:00.247Z,9.38
2019-03-26T06:55:00.252Z,9.43
2019-03-26T06:56:00.128Z,9.39
2019-03-26T06:57:00.070Z,9.49
2019-03-26T06:58:00.011Z,9.39
2019-03-26T06:58:59.953Z,9.38
2019-03-26T06:59:59.891Z,9.45
2019-03-26T07:00:59.833Z,9.42
2019-03-26T07:01:59.776Z,9.40
2019-03-26T07:02:59.713Z,9.40
2019-03-26T07:03:59.653Z,9.43
2019-03-26T07:04:59.595Z,9.43
2019-03-26T07:05:59.632Z,9.35
2019-03-26T07:06:59.475Z,9.43
2019-03-26T07:07:59.415Z,9.39
2019-03-26T07:08:59.357Z,9.40
2019-03-26T07:09:59.297Z,9.34
2019-03-26T07:10:59.237Z,9.42
2019-03-26T07:11:59.177Z,9.43
2019-03-26T07:12:59.118Z,9.42
2019-03-26T07:13:59.063Z,9.35
2019-03-26T07:14:59.004Z,9.31
2019-03-26T07:15:58.940Z,9.40
2019-03-26T07:16:58.885Z,9.42
2019-03-26T07:17:58.821Z,9.43
2019-03-26T07:18:58.767Z,9.40
2019-03-26T07:19:58.702Z,9.45
2019-03-26T07:20:58.642Z,9.46
2019-03-26T07:21:58.584Z,9.30
2019-03-26T07:22:58.526Z,9.40
2019-03-26T07:23:58.464Z,9.40
2019-03-26T07:24:58.408Z,9.43
2019-03-26T07:25:58.345Z,9.43
2019-03-26T07:26:58.287Z,9.42
2019-03-26T07:27:58.227Z,9.45
2019-03-26T07:28:58.167Z,9.43
2019-03-26T07:29:58.112Z,9.38
2019-03-26T07:30:58.048Z,9.46
2019-03-26T07:31:57.988Z,9.40
2019-03-26T07:32:57.930Z,9.34
2019-03-26T07:33:57.871Z,9.39
2019-03-26T07:34:57.810Z,9.42
2019-03-26T07:35:57.753Z,9.39
2019-03-26T07:36:57.695Z,9.40
2019-03-26T07:37:57.632Z,9.48
2019-03-26T07:38:57.575Z,9.42
2019-03-26T07:39:57.514Z,9.43
2019-03-26T07:40:57.452Z,9.48
2019-03-26T07:41:57.393Z,9.40
2019-03-26T07:42:57.334Z,9.46
2019-03-26T07:43:57.278Z,9.45
2019-03-26T07:44:57.219Z,9.53
2019-03-26T07:45:57.157Z,9.46
2019-03-26T07:46:57.097Z,9.48
2019-03-26T07:47:57.041Z,9.50
2019-03-26T07:48:56.976Z,9.45
2019-03-26T07:49:56.918Z,9.53
2019-03-26T07:50:56.858Z,9.46
2019-03-26T07:51:56.797Z,9.42
2019-03-26T07:52:56.812Z,9.42
2019-03-26T07:53:56.681Z,9.46
2019-03-26T07:54:56.625Z,9.42
2019-03-26T07:55:56.564Z,9.40
2019-03-26T07:56:56.501Z,9.50
2019-03-26T07:57:56.443Z,9.43
2019-03-26T07:58:56.382Z,9.45
2019-03-26T07:59:56.326Z,9.45
2019-03-26T08:00:56.263Z,9.39
2019-03-26T08:01:56.205Z,9.42
2019-03-26T08:02:56.144Z,9.38
2019-03-26T08:03:56.085Z,9.39
2019-03-26T08:04:56.025Z,9.48
2019-03-26T08:05:55.967Z,9.39
2019-03-26T08:06:55.906Z,9.48
2019-03-26T08:07:58.671Z,9.43
2019-03-26T08:08:55.787Z,9.46
2019-03-26T08:09:55.729Z,9.43
2019-03-26T08:10:55.669Z,9.42
2019-03-26T08:11:55.607Z,9.45
2019-03-26T08:12:55.550Z,9.46
2019-03-26T08:13:55.529Z,9.42
2019-03-26T08:14:55.440Z,9.43
2019-03-26T08:15:55.385Z,9.35
2019-03-26T08:16:55.321Z,9.50
2019-03-26T08:17:55.259Z,9.46
2019-03-26T08:18:55.194Z,9.40
2019-03-26T08:19:55.137Z,9.45
2019-03-26T08:20:57.426Z,9.49
2019-03-26T08:21:55.016Z,9.53
2019-03-26T08:22:54.956Z,9.43
2019-03-26T08:23:54.894Z,9.42
2019-03-26T08:24:54.835Z,9.46
2019-03-26T08:25:54.775Z,9.38
2019-03-26T08:26:54.718Z,9.39
2019-03-26T08:27:54.657Z,9.40
2019-03-26T08:28:54.608Z,9.39
2019-03-26T08:29:54.543Z,9.43
2019-03-26T08:30:54.482Z,9.45
2019-03-26T08:31:54.418Z,9.38
2019-03-26T08:32:54.359Z,9.48
2019-03-26T08:33:54.302Z,9.43
2019-03-26T08:34:54.245Z,9.43
2019-03-26T08:35:54.189Z,9.45
2019-03-26T08:36:54.121Z,9.39
2019-03-26T08:37:54.066Z,9.50
2019-03-26T08:38:54.009Z,9.40
2019-03-26T08:39:53.942Z,9.42
2019-03-26T08:40:53.886Z,9.50
2019-03-26T08:41:53.826Z,9.45
2019-03-26T08:42:53.765Z,9.38
2019-03-26T08:43:53.705Z,9.45
2019-03-26T08:44:53.648Z,9.45
2019-03-26T08:45:53.589Z,9.40
2019-03-26T08:46:53.528Z,9.40
2019-03-26T08:47:53.468Z,9.52
2019-03-26T08:48:53.413Z,9.52
2019-03-26T08:49:53.353Z,9.52
2019-03-26T08:50:53.290Z,9.57
2019-03-26T08:51:53.229Z,9.48
2019-03-26T08:52:53.173Z,9.53
2019-03-26T08:53:53.111Z,9.52
2019-03-26T08:54:53.054Z,9.52
2019-03-26T08:55:52.992Z,9.40
2019-03-26T08:56:52.932Z,9.50
2019-03-26T08:57:52.876Z,9.56
2019-03-26T08:58:52.814Z,9.56
2019-03-26T08:59:52.754Z,9.56
2019-03-26T09:00:52.695Z,9.60
2019-03-26T09:01:52.638Z,9.57
2019-03-26T09:02:52.577Z,9.60
2019-03-26T09:03:52.519Z,9.56
2019-03-26T09:04:52.456Z,9.52
2019-03-26T09:05:52.399Z,9.52
2019-03-26T09:06:52.338Z,9.50
2019-03-26T09:07:52.279Z,9.56
2019-03-26T09:08:52.218Z,9.60
2019-03-26T09:09:52.162Z,9.57
2019-03-26T09:10:52.267Z,9.56
2019-03-26T09:11:52.040Z,9.61
2019-03-26T09:12:51.986Z,9.58
2019-03-26T09:13:51.923Z,9.56
2019-03-26T09:14:51.863Z,9.56
2019-03-26T09:15:51.803Z,9.57
2019-03-26T09:16:51.743Z,9.53
2019-03-26T09:17:51.687Z,9.56
2019-03-26T09:18:51.624Z,9.53
2019-03-26T09:19:51.564Z,9.56
2019-03-26T09:20:51.506Z,9.57
2019-03-26T09:21:51.448Z,9.57
2019-03-26T09:22:51.387Z,9.57
2019-03-26T09:23:51.330Z,9.60
2019-03-26T09:24:51.269Z,9.52
2019-03-26T09:25:51.214Z,9.60
2019-03-26T09:26:51.149Z,9.56
2019-03-26T09:27:52.493Z,9.61
2019-03-26T09:28:51.030Z,9.63
2019-03-26T09:29:50.974Z,9.52
2019-03-26T09:30:50.912Z,9.64
2019-03-26T09:31:50.852Z,9.53
2019-03-26T09:32:50.792Z,9.67
2019-03-26T09:33:50.733Z,9.67
2019-03-26T09:34:50.674Z,9.63
2019-03-26T09:35:50.614Z,9.73
2019-03-26T09:36:50.556Z,9.52
2019-03-26T09:37:50.497Z,9.61
2019-03-26T09:38:50.436Z,9.64
2019-03-26T09:39:50.376Z,9.66
2019-03-26T09:40:50.317Z,9.66
2019-03-26T09:41:50.260Z,9.64
2019-03-26T09:42:50.200Z,9.66
2019-03-26T09:43:50.138Z,9.64
2019-03-26T09:44:50.079Z,9.68
2019-03-26T09:45:50.027Z,9.66
2019-03-26T09:46:49.962Z,9.70
2019-03-26T09:47:49.908Z,9.66
2019-03-26T09:48:49.841Z,9.67
2019-03-26T09:49:49.782Z,9.70
2019-03-26T09:50:49.723Z,9.68
2019-03-26T09:51:49.663Z,9.71
2019-03-26T09:52:49.607Z,9.67
2019-03-26T09:53:49.545Z,9.68
2019-03-26T09:54:49.486Z,9.68
2019-03-26T09:55:49.426Z,9.67
2019-03-26T09:56:49.366Z,9.70
2019-03-26T09:57:49.307Z,9.73
2019-03-26T09:58:49.249Z,9.70
2019-03-26T09:59:49.191Z,9.67
2019-03-26T10:00:49.323Z,9.70
2019-03-26T10:01:49.073Z,9.68
2019-03-26T10:02:49.011Z,9.68
2019-03-26T10:03:48.951Z,9.67
2019-03-26T10:04:48.891Z,9.70
2019-03-26T10:05:48.833Z,9.67
2019-03-26T10:06:48.772Z,9.68
2019-03-26T10:07:48.716Z,9.75
2019-03-26T10:08:52.619Z,9.70
2019-03-26T10:09:48.594Z,9.70
2019-03-26T10:10:48.540Z,9.70
2019-03-26T10:11:48.474Z,9.75
2019-03-26T10:12:48.416Z,9.73
2019-03-26T10:13:48.356Z,9.75
2019-03-26T10:14:48.304Z,9.76
2019-03-26T10:15:48.239Z,9.75
2019-03-26T10:16:48.178Z,9.67
2019-03-26T10:17:48.119Z,9.68
2019-03-26T10:18:48.063Z,9.76
2019-03-26T10:19:48.005Z,9.68
2019-03-26T10:20:47.942Z,9.66
2019-03-26T10:21:47.889Z,9.66
2019-03-26T10:22:47.823Z,9.68
2019-03-26T10:23:47.762Z,9.66
2019-03-26T10:24:47.703Z,9.68
2019-03-26T10:25:47.645Z,9.70
2019-03-26T10:26:47.584Z,9.71
2019-03-26T10:27:47.527Z,9.70
2019-03-26T10:28:47.465Z,9.67
2019-03-26T10:29:47.405Z,9.67
2019-03-26T10:30:47.348Z,9.68
2019-03-26T10:31:47.287Z,9.63
2019-03-26T10:32:47.227Z,9.68
2019-03-26T10:33:47.167Z,9.67
2019-03-26T10:34:47.111Z,9.68
2019-03-26T10:35:47.059Z,9.66
2019-03-26T10:36:46.993Z,9.67
2019-03-26T10:37:46.931Z,9.70
2019-03-26T10:38:46.871Z,9.67
2019-03-26T10:39:46.811Z,9.63
2019-03-26T10:40:46.753Z,9.70
2019-03-26T10:41:46.694Z,9.67
2019-03-26T10:42:46.633Z,9.67
2019-03-26T10:43:46.574Z,9.66
2019-03-26T10:44:46.515Z,9.66
2019-03-26T10:45:46.454Z,9.67
2019-03-26T10:46:46.403Z,9.66
2019-03-26T10:47:46.340Z,9.66
2019-03-26T10:48:46.276Z,9.73
2019-03-26T10:49:46.219Z,9.70
2019-03-26T10:50:46.159Z,9.67
2019-03-26T10:51:46.100Z,9.66
2019-03-26T10:52:46.038Z,9.73
2019-03-26T10:53:45.980Z,9.73
2019-03-26T10:54:45.922Z,9.58
2019-03-26T10:55:45.860Z,9.66
2019-03-26T10:56:45.803Z,9.68
2019-03-26T10:57:45.742Z,9.73
2019-03-26T10:58:45.696Z,9.67
2019-03-26T10:59:45.622Z,9.71
2019-03-26T11:00:45.572Z,9.70
2019-03-26T11:01:45.509Z,9.70
2019-03-26T11:02:45.449Z,9.75
2019-03-26T11:03:45.386Z,9.68
2019-03-26T11:04:45.326Z,9.75
2019-03-26T11:05:45.267Z,9.73
2019-03-26T11:06:45.211Z,9.70
2019-03-26T11:07:45.149Z,9.75
2019-03-26T11:08:45.388Z,9.68
2019-03-26T11:09:45.029Z,9.75
2019-03-26T11:10:44.970Z,9.75
2019-03-26T11:11:44.910Z,9.67
2019-03-26T11:12:44.851Z,9.73
2019-03-26T11:13:44.795Z,9.70
2019-03-26T11:14:44.733Z,9.66
2019-03-26T11:15:44.672Z,9.71
2019-03-26T11:16:44.613Z,9.71
2019-03-26T11:17:44.554Z,9.68
2019-03-26T11:18:44.497Z,9.70
2019-03-26T11:19:46.412Z,9.68
2019-03-26T11:20:44.376Z,9.71
2019-03-26T11:21:44.320Z,9.71
2019-03-26T11:22:44.257Z,9.73
2019-03-26T11:23:44.202Z,9.73
2019-03-26T11:24:44.138Z,9.78
2019-03-26T11:25:44.078Z,9.68
2019-03-26T11:26:44.019Z,9.68
2019-03-26T11:27:43.964Z,9.66
2019-03-26T11:28:43.901Z,9.73
2019-03-26T11:29:43.842Z,9.76
2019-03-26T11:30:43.791Z,9.71
2019-03-26T11:31:43.724Z,9.71
2019-03-26T11:32:43.665Z,9.71
2019-03-26T11:33:43.606Z,9.71
2019-03-26T11:34:43.552Z,9.67
2019-03-26T11:35:43.486Z,9.70
2019-03-26T11:36:43.425Z,9.70
2019-03-26T11:37:43.367Z,9.63
2019-03-26T11:38:43.306Z,9.70
2019-03-26T11:39:43.249Z,9.64
2019-03-26T11:40:43.187Z,9.67
2019-03-26T11:41:43.130Z,9.73
2019-03-26T11:42:43.069Z,9.73
2019-03-26T11:43:43.009Z,9.67
2019-03-26T11:44:42.950Z,9.76
2019-03-26T11:45:42.898Z,9.79
2019-03-26T11:46:42.831Z,9.75
2019-03-26T11:47:42.772Z,9.78
2019-03-26T11:48:42.711Z,9.78
2019-03-26T11:49:42.653Z,9.71
2019-03-26T11:50:42.606Z,9.78
2019-03-26T11:51:42.535Z,9.73
2019-03-26T11:52:42.474Z,9.76
2019-03-26T11:53:42.438Z,9.75
2019-03-26T11:54:42.359Z,9.81
2019-03-26T11:55:42.300Z,9.75
2019-03-26T11:56:42.244Z,9.79
2019-03-26T11:57:42.183Z,9.73
2019-03-26T11:58:42.130Z,9.76
2019-03-26T11:59:42.059Z,9.78
2019-03-26T12:00:42.001Z,9.82
2019-03-26T12:01:41.965Z,9.82
2019-03-26T12:02:41.880Z,9.73
2019-03-26T12:03:41.829Z,9.78
2019-03-26T12:04:41.762Z,9.78
2019-03-26T12:05:41.712Z,9.81
2019-03-26T12:06:41.650Z,9.71
2019-03-26T12:07:43.039Z,9.82
2019-03-26T12:08:41.524Z,9.83
2019-03-26T12:09:46.590Z,9.83
2019-03-26T12:10:41.409Z,9.82
2019-03-26T12:11:41.348Z,9.86
2019-03-26T12:12:41.286Z,9.82
2019-03-26T12:13:41.228Z,9.83
2019-03-26T12:14:41.175Z,9.85
2019-03-26T12:15:41.108Z,9.83
2019-03-26T12:16:41.051Z,9.89
2019-03-26T12:17:40.990Z,9.81
2019-03-26T12:18:40.933Z,9.76
2019-03-26T12:19:40.872Z,9.89
2019-03-26T12:20:40.814Z,9.83
2019-03-26T12:21:40.754Z,9.91
2019-03-26T12:22:40.698Z,9.91
2019-03-26T12:23:40.640Z,9.91
2019-03-26T12:24:40.574Z,9.85
2019-03-26T12:25:40.516Z,9.93
2019-03-26T12:26:40.457Z,9.85
2019-03-26T12:27:40.397Z,9.88
2019-03-26T12:28:40.340Z,9.93
2019-03-26T12:29:40.279Z,9.89
2019-03-26T12:30:40.220Z,9.85
2019-03-26T12:31:40.161Z,9.85
2019-03-26T12:32:41.127Z,9.85
2019-03-26T12:33:40.043Z,9.94
2019-03-26T12:34:39.982Z,9.88
2019-03-26T12:35:39.928Z,9.91
2019-03-26T12:36:40.450Z,9.85
2019-03-26T12:37:39.804Z,9.97
2019-03-26T12:38:39.745Z,9.89
2019-03-26T12:39:39.684Z,9.86
2019-03-26T12:40:39.625Z,9.91
2019-03-26T12:41:39.582Z,9.89
2019-03-26T12:42:39.509Z,9.88
2019-03-26T12:43:39.448Z,9.91
2019-03-26T12:44:39.389Z,9.88
2019-03-26T12:45:39.333Z,9.91
2019-03-26T12:46:39.269Z,9.86
2019-03-26T12:47:39.211Z,9.94
2019-03-26T12:48:39.154Z,9.88
2019-03-26T12:49:39.093Z,9.91
2019-03-26T12:50:39.034Z,9.97
2019-03-26T12:51:39.489Z,9.94
2019-03-26T12:52:38.916Z,9.94
2019-03-26T12:53:38.855Z,10.00
2019-03-26T12:54:38.796Z,9.93
2019-03-26T12:55:38.739Z,9.91
2019-03-26T12:56:38.681Z,9.89
2019-03-26T12:57:38.618Z,9.89
2019-03-26T12:58:38.560Z,10.00
2019-03-26T12:59:38.502Z,9.91
2019-03-26T13:00:38.442Z,9.93
2019-03-26T13:01:38.380Z,9.96
2019-03-26T13:02:38.321Z,9.88
2019-03-26T13:03:38.265Z,9.93
2019-03-26T13:04:38.202Z,9.96
2019-03-26T13:05:38.142Z,9.94
2019-03-26T13:06:38.087Z,9.94
2019-03-26T13:07:38.024Z,9.97
2019-03-26T13:08:37.965Z,9.89
2019-03-26T13:09:37.907Z,9.94
2019-03-26T13:10:37.858Z,9.94
2019-03-26T13:11:37.787Z,9.99